Strona główna
METAR-TAF:

METAR-TAF

Lotnisko :

Port lotniczy Mendoza

Mendoza, Argentyna

Szerokość geograficzna: 32-50S, Długość geograficzna: 068-47W, wysokość: 705 m

Aktualna obserwacja pogody

Raport powstał 25 minut temu, godzina 07:00 UTC
Wiatr 4 kt od zachodnio-południowy zachód
Temperatura 6°C
Wilgotność 70%
Ciśnienie 1018 hPa
Widzialność 10 km lub więcej
Brak chmur poniżej 1500 m i brak chmur cumulonimbus

METAR: SAME 200700Z 25004KT CAVOK 06/01 Q1018

czas: 04:25 (07:25 UTC)

Prognoza

Raport powstał 2 godziny i 25 minut temu, godzina 05:00 UTC
Prognoza ważna od 20 godzina 06 UTC do 21 godzina 06 UTC
Wiatr 5 kt od południowy zachód
Widzialność 10 km lub więcej
Mało chmury na wysokości 4000 ft
Rozproszone chmury na wysokości 10000 ft

TAF: SAME 200500Z 2006/2106 23005KT 9999 FEW040 SCT100 TX18/2020Z TN04/2010Z

Obserwacja i prognoza pogody dla ponad 4000 lotnisk (raport METAR i TAF).

Dostępne stacje oznaczono żółtymi i czerwonymi punktami na mapie.

Najedź kursorem aby zobaczyć nazwę stacji.

Kliknij aby zobaczyć obserwacje i prognozy pogody.

Aby zmienić mapę: kliknij na zielony przycisk z czarnym krzyżykiem, aby powiększyć; na zielony przycisk z myślnikiem, aby pomniejszyć; na zielone strzałki, aby przejść do map sąsiednich.


METAR-TAF: